Weather History for KBTA - August, 2013

Change the Weather History Date:

Sunday, August 18, 2013

  Actual Average (KOMA) Record (KOMA)
Temperature  
Mean Temperature 68 °F 75 °F  
Max Temperature 79 °F 85 °F 110 °F (1936)
Min Temperature 57 °F 64 °F 53 °F (1985)
Degree Days  
Heating Degree Days 0 0  
Month to date heating degree days 0  
Since 1 June heating degree days 18  
Since 1 July heating degree days 1  
Cooling Degree Days 2 10  
Month to date cooling degree days 191  
Year to date cooling degree days 868  
Since 1 June cooling degree days 786  
Growing Degree Days 18 (Base 50)    
Moisture  
Dew Point 58 °F    
Average Humidity 70    
Maximum Humidity 91    
Minimum Humidity 49    
Precipitation  
Precipitation 0.00 in 0.13 in 2.57 in (1876)
Month to date precipitation 2.29  
Year to date precipitation 21.58  
Snow  
Snow 0.00 in 0.00 in - ()
Month to date snowfall 0.0  
Since 1 July snowfall 0.0  
Snow Depth -    
Sea Level Pressure  
Sea Level Pressure 30.12 in    
Wind  
Wind Speed 5 mph (SSE)    
Max Wind Speed 14 mph    
Max Gust Speed 20 mph    
Visibility 10 miles    
Events      
T = Trace of Precipitation, MM = Missing Value Source: NWS Daily Summary

Daily Weather History Graph

Daily Weather History Graph

Search for Another Location

Airport or City:

Trip Planner

Search our weather history database for the weather conditions in past years. The results will help you decide how hot, cold, wet, or windy it might be!

Date:

Astronomy

Aug. 18, 2013 Rise Set
Actual Time 6:36 AM CDT 8:18 PM CDT
Civil Twilight 6:07 AM CDT 8:48 PM CDT
Nautical Twilight 5:31 AM CDT 9:23 PM CDT
Astronomical Twilight 4:53 AM CDT 10:01 PM CDT
Moon 6:26 PM CDT (8/18) 3:46 AM CDT (8/18)
Length of Visible Light 14h 41m
Length of Day
13h 42m
Waxing Gibbous, 92% of the Moon is Illuminated
Aug 18
Waxing Gibbous
Aug 20
Full
Aug 28
Last Quarter
Sep 5
New
Sep 12
First Quarter

Hourly Weather History & Observations

Time (CDT) Temp. Dew Point Humidity Pressure Visibility Wind Dir Wind Speed Gust Speed Precip Events Conditions
12:15 AM 62.2 °F 55.4 °F 78% 30.14 in 10.0 mi Calm Calm - N/A   Clear
12:35 AM 62.8 °F 55.4 °F 77% 30.14 in 10.0 mi Calm Calm - N/A   Clear
12:55 AM 62.4 °F 55.4 °F 78% 30.14 in 10.0 mi South 3.5 mph - N/A   Clear
1:15 AM 62.2 °F 55.4 °F 78% 30.14 in 10.0 mi South 3.5 mph - N/A   Clear
1:35 AM 61.2 °F 55.4 °F 81% 30.14 in 10.0 mi Calm Calm - N/A   Clear
1:55 AM 62.4 °F 55.4 °F 78% 30.14 in 10.0 mi SSE 3.5 mph - N/A   Clear
2:15 AM 60.4 °F 55.4 °F 83% 30.14 in 10.0 mi Calm Calm - N/A   Clear
2:35 AM 61.7 °F 55.4 °F 80% 30.14 in 10.0 mi SSE 3.5 mph - N/A   Clear
2:55 AM 60.3 °F 55.4 °F 84% 30.14 in 10.0 mi Calm Calm - N/A   Clear
3:15 AM 61.2 °F 55.4 °F 81% 30.14 in 10.0 mi SSE 3.5 mph - N/A   Clear
3:35 AM 59.0 °F 54.7 °F 86% 30.14 in 10.0 mi SSE 3.5 mph - N/A   Clear
3:55 AM 58.6 °F 54.9 °F 87% 30.13 in 10.0 mi Calm Calm - N/A   Clear
4:15 AM 59.9 °F 54.9 °F 83% 30.13 in 10.0 mi SSE 3.5 mph - N/A   Clear
4:35 AM 59.0 °F 54.9 °F 86% 30.13 in 10.0 mi SSE 3.5 mph - N/A   Clear
4:55 AM 59.5 °F 54.5 °F 83% 30.14 in 10.0 mi SSE 3.5 mph - N/A   Clear
5:15 AM 57.7 °F 54.5 °F 89% 30.14 in 10.0 mi Calm Calm - N/A   Clear
5:35 AM 58.3 °F 54.9 °F 88% 30.14 in 10.0 mi SSE 3.5 mph - N/A   Clear
5:55 AM 57.7 °F 54.7 °F 90% 30.14 in 10.0 mi SE 4.6 mph - N/A   Clear
6:15 AM 57.2 °F 54.3 °F 90% 30.15 in 10.0 mi Calm Calm - N/A   Clear
6:35 AM 57.4 °F 54.3 °F 90% 30.15 in 10.0 mi Calm Calm - N/A   Clear
6:55 AM 57.2 °F 54.5 °F 91% 30.16 in 10.0 mi SE 3.5 mph - N/A   Clear
7:15 AM 57.0 °F 54.1 °F 90% 30.16 in 10.0 mi SSE 3.5 mph - N/A   Clear
7:35 AM 59.0 °F 55.0 °F 87% 30.16 in 10.0 mi SE 4.6 mph - N/A   Clear
7:55 AM 60.1 °F 55.6 °F 85% 30.16 in 10.0 mi SE 3.5 mph - N/A   Clear
8:15 AM 61.9 °F 56.5 °F 82% 30.16 in 10.0 mi SSE 4.6 mph - N/A   Clear
8:35 AM 63.5 °F 57.7 °F 81% 30.16 in 10.0 mi SE 4.6 mph - N/A   Clear
8:55 AM 64.8 °F 58.5 °F 80% 30.17 in 10.0 mi SSE 5.8 mph - N/A   Clear
9:15 AM 66.0 °F 58.5 °F 77% 30.17 in 10.0 mi SSE 8.1 mph - N/A   Clear
9:35 AM 67.8 °F 58.5 °F 72% 30.17 in 10.0 mi SSE 6.9 mph - N/A   Clear
9:55 AM 69.4 °F 57.9 °F 67% 30.17 in 10.0 mi South 9.2 mph - N/A   Clear
10:15 AM 70.7 °F 58.8 °F 66% 30.17 in 10.0 mi South 8.1 mph - N/A   Clear
10:35 AM 71.6 °F 58.6 °F 64% 30.17 in 10.0 mi South 9.2 mph - N/A   Clear
10:55 AM 72.9 °F 58.6 °F 61% 30.16 in 10.0 mi SSE 8.1 mph - N/A   Clear
11:15 AM 73.2 °F 57.6 °F 58% 30.16 in 10.0 mi South 9.2 mph - N/A   Clear
11:35 AM 73.8 °F 56.5 °F 55% 30.16 in 10.0 mi South 12.7 mph 17.3 mph N/A   Clear
11:55 AM 74.5 °F 55.9 °F 52% 30.15 in 10.0 mi South 13.8 mph 17.3 mph N/A   Clear
12:15 PM 74.5 °F 56.3 °F 53% 30.15 in 10.0 mi SSE 11.5 mph 18.4 mph N/A   Clear
12:35 PM 75.4 °F 57.6 °F 54% 30.14 in 10.0 mi SSE 11.5 mph 17.3 mph N/A   Clear
12:55 PM 76.1 °F 57.2 °F 52% 30.14 in 10.0 mi South 11.5 mph 17.3 mph N/A   Clear
1:15 PM 76.1 °F 57.4 °F 52% 30.12 in 10.0 mi South 11.5 mph 19.6 mph N/A   Clear
1:35 PM 76.5 °F 56.8 °F 51% 30.12 in 10.0 mi South 12.7 mph 18.4 mph N/A   Clear
1:55 PM 77.0 °F 58.1 °F 52% 30.11 in 10.0 mi South 11.5 mph 18.4 mph N/A   Clear
2:15 PM 77.4 °F 57.2 °F 50% 30.10 in 10.0 mi South 12.7 mph - N/A   Clear
2:35 PM 77.5 °F 56.8 °F 49% 30.10 in 10.0 mi South 11.5 mph - N/A   Clear
2:55 PM 77.7 °F 57.0 °F 49% 30.10 in 10.0 mi South 9.2 mph - N/A   Clear
3:15 PM 78.3 °F 57.9 °F 49% 30.10 in 10.0 mi South 10.4 mph - N/A   Clear
3:35 PM 77.9 °F 57.2 °F 49% 30.10 in 10.0 mi SSE 9.2 mph 16.1 mph N/A   Clear
3:55 PM 78.3 °F 58.1 °F 50% 30.09 in 10.0 mi SSE 9.2 mph - N/A   Clear
4:15 PM 78.8 °F 59.0 °F 51% 30.09 in 10.0 mi SSE 6.9 mph - N/A   Clear
4:35 PM 78.8 °F 59.4 °F 51% 30.09 in 10.0 mi South 10.4 mph - N/A   Clear
4:55 PM 78.3 °F 58.1 °F 50% 30.08 in 10.0 mi South 10.4 mph - N/A   Clear
5:15 PM 78.8 °F 59.5 °F 52% 30.08 in 10.0 mi South 11.5 mph - N/A   Clear
5:35 PM 78.3 °F 59.9 °F 53% 30.08 in 10.0 mi South 10.4 mph - N/A   Clear
5:55 PM 78.3 °F 61.2 °F 56% 30.08 in 10.0 mi South 6.9 mph - N/A   Clear
6:15 PM 77.5 °F 59.5 °F 54% 30.07 in 10.0 mi South 10.4 mph - N/A   Clear
6:35 PM 77.2 °F 59.0 °F 53% 30.07 in 10.0 mi South 9.2 mph - N/A   Clear
6:55 PM 76.5 °F 59.2 °F 55% 30.06 in 10.0 mi SSE 8.1 mph - N/A   Clear
7:15 PM 75.4 °F 59.7 °F 58% 30.06 in 10.0 mi South 8.1 mph - N/A   Clear
7:35 PM 74.3 °F 59.9 °F 61% 30.06 in 10.0 mi SSE 6.9 mph - N/A   Clear
7:55 PM 73.2 °F 59.9 °F 63% 30.06 in 10.0 mi SSE 5.8 mph - N/A   Clear
8:15 PM 71.1 °F 60.1 °F 68% 30.07 in 10.0 mi SSE 5.8 mph - N/A   Clear
8:35 PM 70.3 °F 59.9 °F 69% 30.07 in 10.0 mi SSE 5.8 mph - N/A   Clear
8:55 PM 70.2 °F 59.9 °F 70% 30.07 in 10.0 mi SSE 4.6 mph - N/A   Clear
9:15 PM 69.1 °F 60.3 °F 73% 30.08 in 10.0 mi SSE 4.6 mph - N/A   Clear
9:35 PM 68.9 °F 60.8 °F 75% 30.08 in 10.0 mi SSE 5.8 mph - N/A   Mostly Cloudy
9:55 PM 68.9 °F 60.8 °F 75% 30.08 in 10.0 mi SSE 5.8 mph - N/A   Mostly Cloudy
10:15 PM 68.5 °F 60.8 °F 76% 30.08 in 10.0 mi SSE 5.8 mph - N/A   Mostly Cloudy
10:35 PM 68.2 °F 60.8 °F 77% 30.08 in 10.0 mi SSE 5.8 mph - N/A   Scattered Clouds
10:55 PM 67.5 °F 60.8 °F 79% 30.08 in 10.0 mi South 4.6 mph - N/A   Scattered Clouds
11:15 PM 67.1 °F 60.8 °F 80% 30.09 in 10.0 mi South 4.6 mph - N/A   Mostly Cloudy
11:35 PM 67.3 °F 60.8 °F 80% 30.09 in 10.0 mi SSE 6.9 mph - N/A   Mostly Cloudy
11:55 PM 66.9 °F 60.8 °F 81% 30.09 in 10.0 mi South 6.9 mph - N/A   Scattered Clouds